YM Initiative — A8HX4 — position and weather

sailwx.info

Track history (hours):
 
Tides and Currents Weather Stations Pressure Air Temp Water Temp Dewpoint Dewpoint Depression Visibility Wind Speed Wind Dir Waves Ship Positions

YM Initiative

Last reported at 2014-Oct-24 14:34 UTC. Time now 2014-Oct-24 15:35 UTC.
Position N 01°14' E 103°47'.

Length 173 m; draft 7.7 m.

Type: Cargo ship. MMSI: 635961368.

Date/timePositionNaut miles runAvg speedWind from/ knotsBaromVisibWave heightAir tempDewpointWater temp
2014-Oct-24 14:34N 01°14' E 103°47'6 6.2
2014-Oct-24 13:33N 01°13' E 103°53'7 7.1
2014-Oct-24 12:33N 01°16' E 103°60'7 7.4
2014-Oct-24 11:33N 01°17' E 104°07'7 6.4
2014-Oct-24 10:28N 01°18' E 104°14'  
2014-Oct-20 02:15N 01°15' E 104°06'1116.0
2014-Oct-20 01:33N 01°13' E 103°55'17 0.4
2014-Oct-18 12:04N 01°12' E 103°39'610.9
2014-Oct-18 11:31N 01°15' E 103°44'3 2.5
2014-Oct-18 10:27N 01°16' E 103°46'0 0.0
2014-Oct-18 09:24N 01°16' E 103°46'0 0.0
2014-Oct-18 08:30N 01°16' E 103°46'0 0.0
2014-Oct-18 07:30N 01°16' E 103°46'0 0.0
2014-Oct-18 06:33N 01°16' E 103°46'0 0.0
2014-Oct-18 05:30N 01°16' E 103°46'0 0.0
2014-Oct-18 04:30N 01°16' E 103°46'0 0.0
2014-Oct-18 03:21N 01°16' E 103°46'0 0.0
2014-Oct-18 02:33N 01°16' E 103°46'0 0.0
2014-Oct-18 01:12N 01°16' E 103°46'0 0.0
2014-Oct-18 00:30N 01°16' E 103°46'0 0.0
2014-Oct-17 23:09N 01°16' E 103°46'0 0.0
2014-Oct-17 22:33N 01°16' E 103°46'0 0.0
2014-Oct-17 21:33N 01°16' E 103°46'0 0.0
2014-Oct-17 20:33N 01°16' E 103°46'0 0.0
2014-Oct-17 19:33N 01°16' E 103°46'0 0.0
2014-Oct-17 18:33N 01°16' E 103°46'0 0.0
2014-Oct-17 15:30N 01°16' E 103°46'0 0.0
2014-Oct-17 14:18N 01°16' E 103°46'1 1.9
2014-Oct-17 13:33N 01°15' E 103°47'6 6.4
2014-Oct-17 12:33N 01°13' E 103°53'7 7.3
2014-Oct-17 11:32N 01°16' E 104°00'1110.7
2014-Oct-17 10:33N 01°17' E 104°11'  
Track history (hours):
 
Tides and Currents Weather Stations Pressure Air Temp Water Temp Dewpoint Dewpoint Depression Visibility Wind Speed Wind Dir Waves Ship Positions

YM Initiative

Last reported at 2014-Oct-24 14:34 UTC. Time now 2014-Oct-24 15:35 UTC.
Position N 01°14' E 103°47'.

Length 173 m; draft 7.7 m.

Type: Cargo ship. MMSI: 635961368.

Date/timePositionNaut miles runAvg speedWind from/ knotsBaromVisibWave heightAir tempDewpointWater temp
2014-Oct-24 14:34N 01°14' E 103°47'6 6.2
2014-Oct-24 13:33N 01°13' E 103°53'7 7.1
2014-Oct-24 12:33N 01°16' E 103°60'7 7.4
2014-Oct-24 11:33N 01°17' E 104°07'7 6.4
2014-Oct-24 10:28N 01°18' E 104°14'  
2014-Oct-20 02:15N 01°15' E 104°06'1116.0
2014-Oct-20 01:33N 01°13' E 103°55'17 0.4
2014-Oct-18 12:04N 01°12' E 103°39'610.9
2014-Oct-18 11:31N 01°15' E 103°44'3 2.5
2014-Oct-18 10:27N 01°16' E 103°46'0 0.0
2014-Oct-18 09:24N 01°16' E 103°46'0 0.0
2014-Oct-18 08:30N 01°16' E 103°46'0 0.0
2014-Oct-18 07:30N 01°16' E 103°46'0 0.0
2014-Oct-18 06:33N 01°16' E 103°46'0 0.0
2014-Oct-18 05:30N 01°16' E 103°46'0 0.0
2014-Oct-18 04:30N 01°16' E 103°46'0 0.0
2014-Oct-18 03:21N 01°16' E 103°46'0 0.0
2014-Oct-18 02:33N 01°16' E 103°46'0 0.0
2014-Oct-18 01:12N 01°16' E 103°46'0 0.0
2014-Oct-18 00:30N 01°16' E 103°46'0 0.0
2014-Oct-17 23:09N 01°16' E 103°46'0 0.0
2014-Oct-17 22:33N 01°16' E 103°46'0 0.0
2014-Oct-17 21:33N 01°16' E 103°46'0 0.0
2014-Oct-17 20:33N 01°16' E 103°46'0 0.0
2014-Oct-17 19:33N 01°16' E 103°46'0 0.0
2014-Oct-17 18:33N 01°16' E 103°46'0 0.0
2014-Oct-17 15:30N 01°16' E 103°46'0 0.0
2014-Oct-17 14:18N 01°16' E 103°46'1 1.9
2014-Oct-17 13:33N 01°15' E 103°47'6 6.4
2014-Oct-17 12:33N 01°13' E 103°53'7 7.3
2014-Oct-17 11:32N 01°16' E 104°00'1110.7
2014-Oct-17 10:33N 01°17' E 104°11'  

Dump ship's entire track history